sensor_id;sensor_type;location;lat;lon;timestamp;pressure;altitude;pressure_sealevel;temperature;humidity
29505;BME280;16452;54.174;12.092;2022-12-07T00:01:33;101036.66;;;5.16;100.00
29505;BME280;16452;54.174;12.092;2022-12-07T00:04:01;101035.81;;;5.15;100.00
29505;BME280;16452;54.174;12.092;2022-12-07T00:06:36;101030.78;;;5.11;100.00
29505;BME280;16452;54.174;12.092;2022-12-07T00:09:04;101024.16;;;5.01;100.00
29505;BME280;16452;54.174;12.092;2022-12-07T00:11:31;101014.91;;;4.92;100.00
29505;BME280;16452;54.174;12.092;2022-12-07T00:14:00;101007.84;;;4.99;100.00
29505;BME280;16452;54.174;12.092;2022-12-07T00:16:29;101015.06;;;4.84;100.00
29505;BME280;16452;54.174;12.092;2022-12-07T00:18:56;101005.84;;;4.76;100.00
29505;BME280;16452;54.174;12.092;2022-12-07T00:21:28;101001.22;;;4.88;100.00
29505;BME280;16452;54.174;12.092;2022-12-07T00:23:56;101002.53;;;4.71;100.00
29505;BME280;16452;54.174;12.092;2022-12-07T00:26:25;100997.59;;;4.60;100.00
29505;BME280;16452;54.174;12.092;2022-12-07T00:28:58;100993.78;;;4.41;100.00
29505;BME280;16452;54.174;12.092;2022-12-07T00:31:28;100991.22;;;4.39;100.00
29505;BME280;16452;54.174;12.092;2022-12-07T00:33:55;100986.16;;;3.98;100.00
29505;BME280;16452;54.174;12.092;2022-12-07T00:36:23;100984.06;;;4.13;100.00
29505;BME280;16452;54.174;12.092;2022-12-07T00:38:49;100981.06;;;4.33;100.00
29505;BME280;16452;54.174;12.092;2022-12-07T00:41:21;100969.03;;;3.95;100.00
29505;BME280;16452;54.174;12.092;2022-12-07T00:43:48;100971.06;;;3.81;100.00
29505;BME280;16452;54.174;12.092;2022-12-07T00:46:15;100974.16;;;3.97;100.00
29505;BME280;16452;54.174;12.092;2022-12-07T00:48:42;100964.56;;;4.03;100.00
29505;BME280;16452;54.174;12.092;2022-12-07T00:51:12;100963.16;;;3.89;100.00
29505;BME280;16452;54.174;12.092;2022-12-07T00:53:39;100956.38;;;3.85;100.00
29505;BME280;16452;54.174;12.092;2022-12-07T00:56:14;100952.88;;;3.87;100.00
29505;BME280;16452;54.174;12.092;2022-12-07T00:58:40;100946.72;;;3.94;100.00
29505;BME280;16452;54.174;12.092;2022-12-07T01:01:08;100948.50;;;3.91;100.00
29505;BME280;16452;54.174;12.092;2022-12-07T01:03:34;100950.41;;;3.84;100.00
29505;BME280;16452;54.174;12.092;2022-12-07T01:06:00;100945.19;;;3.86;100.00
29505;BME280;16452;54.174;12.092;2022-12-07T01:08:27;100947.00;;;3.82;100.00
29505;BME280;16452;54.174;12.092;2022-12-07T01:11:23;100948.75;;;3.80;100.00
29505;BME280;16452;54.174;12.092;2022-12-07T01:13:51;100941.28;;;3.68;100.00
29505;BME280;16452;54.174;12.092;2022-12-07T01:16:18;100937.81;;;3.70;100.00
29505;BME280;16452;54.174;12.092;2022-12-07T01:18:48;100943.78;;;3.72;100.00
29505;BME280;16452;54.174;12.092;2022-12-07T01:21:20;100940.66;;;3.57;100.00
29505;BME280;16452;54.174;12.092;2022-12-07T01:23:47;100933.88;;;3.53;100.00
29505;BME280;16452;54.174;12.092;2022-12-07T01:26:16;100931.16;;;3.60;100.00
29505;BME280;16452;54.174;12.092;2022-12-07T01:28:43;100928.81;;;3.48;100.00
29505;BME280;16452;54.174;12.092;2022-12-07T01:31:18;100925.41;;;3.48;100.00
29505;BME280;16452;54.174;12.092;2022-12-07T01:33:48;100932.69;;;3.67;100.00
29505;BME280;16452;54.174;12.092;2022-12-07T01:36:22;100920.34;;;3.43;100.00
29505;BME280;16452;54.174;12.092;2022-12-07T01:38:54;100920.97;;;3.54;100.00
29505;BME280;16452;54.174;12.092;2022-12-07T01:41:24;100916.78;;;3.89;100.00
29505;BME280;16452;54.174;12.092;2022-12-07T01:44:22;100913.16;;;3.97;100.00
29505;BME280;16452;54.174;12.092;2022-12-07T01:46:58;100910.28;;;3.72;100.00
29505;BME280;16452;54.174;12.092;2022-12-07T01:49:42;100906.09;;;3.67;100.00
29505;BME280;16452;54.174;12.092;2022-12-07T01:52:28;100912.16;;;3.64;100.00
29505;BME280;16452;54.174;12.092;2022-12-07T01:54:58;100914.91;;;3.57;100.00
29505;BME280;16452;54.174;12.092;2022-12-07T01:57:26;100913.16;;;3.59;100.00
29505;BME280;16452;54.174;12.092;2022-12-07T01:59:55;100910.59;;;3.57;100.00
29505;BME280;16452;54.174;12.092;2022-12-07T02:02:41;100907.91;;;3.63;100.00
29505;BME280;16452;54.174;12.092;2022-12-07T02:05:09;100903.66;;;3.61;100.00
29505;BME280;16452;54.174;12.092;2022-12-07T02:07:36;100889.59;;;3.76;100.00
29505;BME280;16452;54.174;12.092;2022-12-07T02:10:22;100895.97;;;3.96;100.00
29505;BME280;16452;54.174;12.092;2022-12-07T02:13:15;100886.81;;;3.85;100.00
29505;BME280;16452;54.174;12.092;2022-12-07T02:19:06;100881.09;;;4.09;100.00
29505;BME280;16452;54.174;12.092;2022-12-07T02:24:48;100872.00;;;3.94;100.00
29505;BME280;16452;54.174;12.092;2022-12-07T02:27:43;100867.88;;;3.86;100.00
29505;BME280;16452;54.174;12.092;2022-12-07T02:30:22;100864.28;;;3.94;100.00
29505;BME280;16452;54.174;12.092;2022-12-07T02:33:03;100862.75;;;3.86;100.00
29505;BME280;16452;54.174;12.092;2022-12-07T02:35:51;100862.69;;;3.89;100.00
29505;BME280;16452;54.174;12.092;2022-12-07T02:38:35;100852.50;;;3.84;100.00
29505;BME280;16452;54.174;12.092;2022-12-07T02:41:33;100852.31;;;3.90;100.00
29505;BME280;16452;54.174;12.092;2022-12-07T02:44:07;100849.50;;;4.01;100.00
29505;BME280;16452;54.174;12.092;2022-12-07T02:47:03;100851.78;;;4.13;100.00
29505;BME280;16452;54.174;12.092;2022-12-07T02:49:30;100837.22;;;4.12;100.00
29505;BME280;16452;54.174;12.092;2022-12-07T02:51:56;100842.84;;;3.92;100.00
29505;BME280;16452;54.174;12.092;2022-12-07T02:54:22;100844.38;;;3.99;100.00
29505;BME280;16452;54.174;12.092;2022-12-07T02:57:34;100826.06;;;4.11;100.00
29505;BME280;16452;54.174;12.092;2022-12-07T03:00:11;100839.94;;;4.06;100.00
29505;BME280;16452;54.174;12.092;2022-12-07T03:05:58;100826.84;;;4.13;100.00
29505;BME280;16452;54.174;12.092;2022-12-07T03:09:13;100826.84;;;4.13;100.00
29505;BME280;16452;54.174;12.092;2022-12-07T03:11:50;100830.25;;;4.14;100.00
29505;BME280;16452;54.174;12.092;2022-12-07T03:17:04;100816.66;;;4.09;100.00
29505;BME280;16452;54.174;12.092;2022-12-07T03:19:34;100818.19;;;4.16;100.00
29505;BME280;16452;54.174;12.092;2022-12-07T03:22:08;100805.91;;;4.26;100.00
29505;BME280;16452;54.174;12.092;2022-12-07T03:24:50;100809.47;;;4.22;100.00
29505;BME280;16452;54.174;12.092;2022-12-07T03:27:37;100801.00;;;4.17;100.00
29505;BME280;16452;54.174;12.092;2022-12-07T03:30:17;100805.19;;;4.21;100.00
29505;BME280;16452;54.174;12.092;2022-12-07T03:33:02;100797.66;;;4.13;100.00
29505;BME280;16452;54.174;12.092;2022-12-07T03:35:54;100802.69;;;4.18;100.00
29505;BME280;16452;54.174;12.092;2022-12-07T03:38:33;100799.13;;;4.23;100.00
29505;BME280;16452;54.174;12.092;2022-12-07T03:41:31;100785.97;;;4.32;100.00
29505;BME280;16452;54.174;12.092;2022-12-07T03:43:59;100776.50;;;4.33;100.00
29505;BME280;16452;54.174;12.092;2022-12-07T03:47:01;100781.75;;;4.30;100.00
29505;BME280;16452;54.174;12.092;2022-12-07T03:53:08;100767.03;;;4.33;100.00
29505;BME280;16452;54.174;12.092;2022-12-07T03:55:41;100762.88;;;4.29;100.00
29505;BME280;16452;54.174;12.092;2022-12-07T03:58:13;100769.19;;;4.18;100.00
29505;BME280;16452;54.174;12.092;2022-12-07T04:00:42;100762.75;;;4.01;100.00
29505;BME280;16452;54.174;12.092;2022-12-07T04:03:09;100762.75;;;4.01;100.00
29505;BME280;16452;54.174;12.092;2022-12-07T04:05:35;100758.84;;;4.19;100.00
29505;BME280;16452;54.174;12.092;2022-12-07T04:08:00;100757.25;;;4.13;100.00
29505;BME280;16452;54.174;12.092;2022-12-07T04:10:26;100761.75;;;4.05;100.00
29505;BME280;16452;54.174;12.092;2022-12-07T04:12:52;100752.34;;;4.04;100.00
29505;BME280;16452;54.174;12.092;2022-12-07T04:15:18;100748.47;;;4.21;100.00
29505;BME280;16452;54.174;12.092;2022-12-07T04:17:43;100755.47;;;4.16;100.00
29505;BME280;16452;54.174;12.092;2022-12-07T04:20:10;100754.66;;;4.46;100.00
29505;BME280;16452;54.174;12.092;2022-12-07T04:22:36;100751.84;;;4.24;100.00
29505;BME280;16452;54.174;12.092;2022-12-07T04:25:02;100757.22;;;4.15;100.00
29505;BME280;16452;54.174;12.092;2022-12-07T04:27:28;100753.09;;;4.08;100.00
29505;BME280;16452;54.174;12.092;2022-12-07T04:29:53;100746.53;;;3.96;100.00
29505;BME280;16452;54.174;12.092;2022-12-07T04:32:21;100750.75;;;3.99;100.00
29505;BME280;16452;54.174;12.092;2022-12-07T04:34:47;100757.47;;;4.37;100.00
29505;BME280;16452;54.174;12.092;2022-12-07T04:37:13;100756.03;;;4.59;100.00
29505;BME280;16452;54.174;12.092;2022-12-07T04:39:38;100759.28;;;4.35;100.00
29505;BME280;16452;54.174;12.092;2022-12-07T04:42:04;100757.41;;;4.40;100.00
29505;BME280;16452;54.174;12.092;2022-12-07T04:44:30;100745.88;;;4.21;100.00
29505;BME280;16452;54.174;12.092;2022-12-07T04:46:56;100748.34;;;4.25;100.00
29505;BME280;16452;54.174;12.092;2022-12-07T04:49:23;100744.34;;;4.13;100.00
29505;BME280;16452;54.174;12.092;2022-12-07T04:51:50;100749.84;;;4.34;100.00
29505;BME280;16452;54.174;12.092;2022-12-07T04:54:16;100746.72;;;4.53;100.00
29505;BME280;16452;54.174;12.092;2022-12-07T04:56:43;100756.69;;;4.35;100.00
29505;BME280;16452;54.174;12.092;2022-12-07T04:59:13;100755.41;;;4.49;100.00
29505;BME280;16452;54.174;12.092;2022-12-07T05:01:40;100757.81;;;4.57;100.00
29505;BME280;16452;54.174;12.092;2022-12-07T05:04:06;100754.44;;;4.23;100.00
29505;BME280;16452;54.174;12.092;2022-12-07T05:06:34;100751.91;;;4.21;100.00
29505;BME280;16452;54.174;12.092;2022-12-07T05:09:00;100747.69;;;4.19;100.00
29505;BME280;16452;54.174;12.092;2022-12-07T05:11:26;100742.13;;;4.01;100.00
29505;BME280;16452;54.174;12.092;2022-12-07T05:14:19;100744.09;;;4.24;100.00
29505;BME280;16452;54.174;12.092;2022-12-07T05:16:49;100743.00;;;4.33;100.00
29505;BME280;16452;54.174;12.092;2022-12-07T05:19:21;100738.75;;;4.61;100.00
29505;BME280;16452;54.174;12.092;2022-12-07T05:21:47;100746.13;;;4.44;100.00
29505;BME280;16452;54.174;12.092;2022-12-07T05:24:15;100738.78;;;4.30;100.00
29505;BME280;16452;54.174;12.092;2022-12-07T05:26:41;100737.88;;;4.31;100.00
29505;BME280;16452;54.174;12.092;2022-12-07T05:29:07;100733.94;;;4.18;100.00
29505;BME280;16452;54.174;12.092;2022-12-07T05:31:33;100738.31;;;4.14;100.00
29505;BME280;16452;54.174;12.092;2022-12-07T05:33:59;100730.56;;;4.16;100.00
29505;BME280;16452;54.174;12.092;2022-12-07T05:36:25;100726.44;;;4.09;100.00
29505;BME280;16452;54.174;12.092;2022-12-07T05:38:54;100733.22;;;4.13;100.00
29505;BME280;16452;54.174;12.092;2022-12-07T05:41:19;100730.50;;;4.19;100.00
29505;BME280;16452;54.174;12.092;2022-12-07T05:44:04;100732.25;;;4.17;100.00
29505;BME280;16452;54.174;12.092;2022-12-07T05:46:30;100722.13;;;4.09;100.00
29505;BME280;16452;54.174;12.092;2022-12-07T05:48:56;100720.41;;;4.10;100.00
29505;BME280;16452;54.174;12.092;2022-12-07T05:51:22;100725.59;;;4.08;100.00
29505;BME280;16452;54.174;12.092;2022-12-07T05:53:48;100720.13;;;3.88;100.00
29505;BME280;16452;54.174;12.092;2022-12-07T05:56:14;100713.72;;;4.03;100.00
29505;BME280;16452;54.174;12.092;2022-12-07T05:58:39;100723.38;;;4.27;100.00
29505;BME280;16452;54.174;12.092;2022-12-07T06:01:24;100721.38;;;4.37;100.00
29505;BME280;16452;54.174;12.092;2022-12-07T06:03:49;100722.75;;;4.50;100.00
29505;BME280;16452;54.174;12.092;2022-12-07T06:06:15;100724.75;;;4.40;100.00
29505;BME280;16452;54.174;12.092;2022-12-07T06:08:41;100721.47;;;4.65;100.00
29505;BME280;16452;54.174;12.092;2022-12-07T06:11:06;100717.00;;;4.71;100.00
29505;BME280;16452;54.174;12.092;2022-12-07T06:13:50;100715.66;;;4.87;100.00
29505;BME280;16452;54.174;12.092;2022-12-07T06:16:16;100721.88;;;4.80;100.00
29505;BME280;16452;54.174;12.092;2022-12-07T06:18:42;100721.16;;;4.75;100.00
29505;BME280;16452;54.174;12.092;2022-12-07T06:21:07;100722.63;;;4.84;100.00
29505;BME280;16452;54.174;12.092;2022-12-07T06:23:33;100717.78;;;4.73;100.00
29505;BME280;16452;54.174;12.092;2022-12-07T06:25:59;100709.47;;;4.93;100.00
29505;BME280;16452;54.174;12.092;2022-12-07T06:28:24;100716.16;;;4.99;100.00
29505;BME280;16452;54.174;12.092;2022-12-07T06:30:58;100727.38;;;4.97;100.00
29505;BME280;16452;54.174;12.092;2022-12-07T06:33:24;100722.13;;;5.01;100.00
29505;BME280;16452;54.174;12.092;2022-12-07T06:35:50;100724.41;;;5.11;100.00
29505;BME280;16452;54.174;12.092;2022-12-07T06:38:16;100726.97;;;5.11;100.00
29505;BME280;16452;54.174;12.092;2022-12-07T06:40:42;100727.19;;;5.04;100.00
29505;BME280;16452;54.174;12.092;2022-12-07T06:43:08;100734.41;;;4.92;100.00
29505;BME280;16452;54.174;12.092;2022-12-07T06:45:34;100730.63;;;5.04;100.00
29505;BME280;16452;54.174;12.092;2022-12-07T06:48:00;100720.97;;;5.11;99.69
29505;BME280;16452;54.174;12.092;2022-12-07T06:50:25;100725.38;;;4.78;100.00
29505;BME280;16452;54.174;12.092;2022-12-07T06:52:52;100719.81;;;4.91;100.00
29505;BME280;16452;54.174;12.092;2022-12-07T06:55:17;100728.41;;;4.92;100.00
29505;BME280;16452;54.174;12.092;2022-12-07T06:57:44;100726.31;;;4.75;100.00
29505;BME280;16452;54.174;12.092;2022-12-07T07:00:10;100717.00;;;4.71;100.00
29505;BME280;16452;54.174;12.092;2022-12-07T07:02:36;100720.09;;;4.82;100.00
29505;BME280;16452;54.174;12.092;2022-12-07T07:05:02;100725.34;;;4.79;100.00
29505;BME280;16452;54.174;12.092;2022-12-07T07:07:28;100717.59;;;4.79;100.00
29505;BME280;16452;54.174;12.092;2022-12-07T07:09:54;100724.97;;;4.91;100.00
29505;BME280;16452;54.174;12.092;2022-12-07T07:12:20;100724.16;;;4.89;100.00
29505;BME280;16452;54.174;12.092;2022-12-07T07:14:46;100721.88;;;5.08;100.00
29505;BME280;16452;54.174;12.092;2022-12-07T07:17:12;100720.25;;;5.06;100.00
29505;BME280;16452;54.174;12.092;2022-12-07T07:19:38;100724.84;;;4.96;100.00
29505;BME280;16452;54.174;12.092;2022-12-07T07:22:13;100720.53;;;5.24;100.00
29505;BME280;16452;54.174;12.092;2022-12-07T07:24:38;100715.81;;;5.11;100.00
29505;BME280;16452;54.174;12.092;2022-12-07T07:27:04;100715.75;;;5.12;100.00
29505;BME280;16452;54.174;12.092;2022-12-07T07:29:30;100725.00;;;5.19;100.00
29505;BME280;16452;54.174;12.092;2022-12-07T07:31:56;100719.13;;;5.14;100.00
29505;BME280;16452;54.174;12.092;2022-12-07T07:34:21;100718.16;;;5.18;100.00
29505;BME280;16452;54.174;12.092;2022-12-07T07:36:47;100725.91;;;5.18;100.00
29505;BME280;16452;54.174;12.092;2022-12-07T07:39:13;100721.88;;;5.08;100.00
29505;BME280;16452;54.174;12.092;2022-12-07T07:41:39;100727.72;;;5.15;100.00
29505;BME280;16452;54.174;12.092;2022-12-07T07:44:04;100724.91;;;5.22;100.00
29505;BME280;16452;54.174;12.092;2022-12-07T07:46:30;100728.72;;;5.11;99.56
29505;BME280;16452;54.174;12.092;2022-12-07T07:48:58;100723.25;;;5.20;98.22
29505;BME280;16452;54.174;12.092;2022-12-07T07:51:24;100728.34;;;5.23;99.13
29505;BME280;16452;54.174;12.092;2022-12-07T07:53:50;100728.84;;;5.34;100.00
29505;BME280;16452;54.174;12.092;2022-12-07T07:56:16;100731.00;;;5.20;100.00
29505;BME280;16452;54.174;12.092;2022-12-07T07:58:41;100730.59;;;5.33;100.00
29505;BME280;16452;54.174;12.092;2022-12-07T08:01:07;100727.31;;;5.28;98.09
29505;BME280;16452;54.174;12.092;2022-12-07T08:03:34;100731.44;;;5.34;95.78
29505;BME280;16452;54.174;12.092;2022-12-07T08:06:02;100732.69;;;5.21;98.22
29505;BME280;16452;54.174;12.092;2022-12-07T08:08:32;100722.72;;;5.36;99.31
29505;BME280;16452;54.174;12.092;2022-12-07T08:10:57;100723.56;;;5.37;99.27
29505;BME280;16452;54.174;12.092;2022-12-07T08:13:27;100723.19;;;5.49;100.00
29505;BME280;16452;54.174;12.092;2022-12-07T08:15:53;100717.28;;;5.46;100.00
29505;BME280;16452;54.174;12.092;2022-12-07T08:18:19;100717.84;;;5.27;99.66
29505;BME280;16452;54.174;12.092;2022-12-07T08:20:44;100732.34;;;5.31;99.66
29505;BME280;16452;54.174;12.092;2022-12-07T08:23:10;100723.03;;;5.27;100.00
29505;BME280;16452;54.174;12.092;2022-12-07T08:25:36;100716.31;;;5.22;100.00
29505;BME280;16452;54.174;12.092;2022-12-07T08:28:03;100711.03;;;5.25;99.09
29505;BME280;16452;54.174;12.092;2022-12-07T08:30:29;100710.34;;;5.20;98.63
29505;BME280;16452;54.174;12.092;2022-12-07T08:32:56;100703.94;;;5.05;99.87
29505;BME280;16452;54.174;12.092;2022-12-07T08:35:22;100700.41;;;5.35;99.97
29505;BME280;16452;54.174;12.092;2022-12-07T08:37:48;100700.94;;;5.45;98.95
29505;BME280;16452;54.174;12.092;2022-12-07T08:40:14;100699.53;;;5.61;99.50
29505;BME280;16452;54.174;12.092;2022-12-07T08:42:42;100693.38;;;5.65;99.92
29505;BME280;16452;54.174;12.092;2022-12-07T08:45:12;100695.53;;;5.77;100.00
29505;BME280;16452;54.174;12.092;2022-12-07T08:47:43;100692.22;;;5.74;100.00
29505;BME280;16452;54.174;12.092;2022-12-07T08:50:12;100686.41;;;5.67;100.00
29505;BME280;16452;54.174;12.092;2022-12-07T08:52:39;100685.59;;;5.93;100.00
29505;BME280;16452;54.174;12.092;2022-12-07T08:55:08;100685.47;;;6.21;100.00
29505;BME280;16452;54.174;12.092;2022-12-07T08:57:36;100689.66;;;6.24;100.00
29505;BME280;16452;54.174;12.092;2022-12-07T09:00:04;100701.22;;;6.13;100.00
29505;BME280;16452;54.174;12.092;2022-12-07T09:02:31;100694.31;;;5.89;100.00
29505;BME280;16452;54.174;12.092;2022-12-07T09:04:57;100697.44;;;5.99;100.00
29505;BME280;16452;54.174;12.092;2022-12-07T09:07:24;100706.69;;;5.79;100.00
29505;BME280;16452;54.174;12.092;2022-12-07T09:09:56;100703.97;;;5.83;100.00
29505;BME280;16452;54.174;12.092;2022-12-07T09:12:21;100699.28;;;5.69;100.00
29505;BME280;16452;54.174;12.092;2022-12-07T09:14:47;100702.19;;;5.85;100.00
29505;BME280;16452;54.174;12.092;2022-12-07T09:17:13;100712.50;;;5.86;100.00
29505;BME280;16452;54.174;12.092;2022-12-07T09:19:39;100696.78;;;5.94;100.00
29505;BME280;16452;54.174;12.092;2022-12-07T09:22:07;100703.16;;;5.82;100.00
29505;BME280;16452;54.174;12.092;2022-12-07T09:24:33;100693.13;;;5.99;100.00
29505;BME280;16452;54.174;12.092;2022-12-07T09:26:59;100697.94;;;5.84;100.00
29505;BME280;16452;54.174;12.092;2022-12-07T09:29:25;100692.56;;;5.90;99.34
29505;BME280;16452;54.174;12.092;2022-12-07T09:31:53;100696.34;;;5.79;100.00
29505;BME280;16452;54.174;12.092;2022-12-07T09:34:19;100689.91;;;5.93;100.00
29505;BME280;16452;54.174;12.092;2022-12-07T09:36:46;100679.84;;;5.84;100.00
29505;BME280;16452;54.174;12.092;2022-12-07T09:39:12;100679.94;;;5.81;100.00
29505;BME280;16452;54.174;12.092;2022-12-07T09:41:43;100686.47;;;5.92;100.00
29505;BME280;16452;54.174;12.092;2022-12-07T09:44:21;100685.88;;;5.83;100.00
29505;BME280;16452;54.174;12.092;2022-12-07T09:46:49;100679.09;;;5.80;100.00
29505;BME280;16452;54.174;12.092;2022-12-07T09:49:22;100673.22;;;5.76;100.00
29505;BME280;16452;54.174;12.092;2022-12-07T09:52:20;100663.97;;;5.94;100.00
29505;BME280;16452;54.174;12.092;2022-12-07T09:54:51;100672.78;;;5.89;97.60
29505;BME280;16452;54.174;12.092;2022-12-07T09:57:20;100673.28;;;6.00;97.27
29505;BME280;16452;54.174;12.092;2022-12-07T09:59:48;100670.41;;;6.07;92.58
29505;BME280;16452;54.174;12.092;2022-12-07T10:02:37;100665.91;;;6.37;90.81
29505;BME280;16452;54.174;12.092;2022-12-07T10:05:12;100666.69;;;6.39;86.88
29505;BME280;16452;54.174;12.092;2022-12-07T10:07:38;100671.47;;;6.50;88.18
29505;BME280;16452;54.174;12.092;2022-12-07T10:10:14;100660.91;;;6.78;89.32
29505;BME280;16452;54.174;12.092;2022-12-07T10:13:11;100655.97;;;6.93;89.60
29505;BME280;16452;54.174;12.092;2022-12-07T10:15:56;100652.84;;;7.07;90.17
29505;BME280;16452;54.174;12.092;2022-12-07T10:21:18;100656.47;;;6.81;89.15
29505;BME280;16452;54.174;12.092;2022-12-07T10:29:21;100669.56;;;6.07;80.29
29505;BME280;16452;54.174;12.092;2022-12-07T10:31:59;100668.34;;;5.94;80.30
29505;BME280;16452;54.174;12.092;2022-12-07T10:34:36;100656.72;;;5.79;79.88
29505;BME280;16452;54.174;12.092;2022-12-07T10:39:54;100652.09;;;5.64;78.31
29505;BME280;16452;54.174;12.092;2022-12-07T10:42:27;100651.81;;;5.47;80.28
29505;BME280;16452;54.174;12.092;2022-12-07T10:45:16;100653.19;;;5.57;81.91
29505;BME280;16452;54.174;12.092;2022-12-07T10:50:49;100656.03;;;5.49;82.95
29505;BME280;16452;54.174;12.092;2022-12-07T10:53:57;100656.78;;;5.53;83.34
29505;BME280;16452;54.174;12.092;2022-12-07T10:56:58;100639.59;;;5.52;79.80
29505;BME280;16452;54.174;12.092;2022-12-07T10:59:57;100643.22;;;5.71;78.85
29505;BME280;16452;54.174;12.092;2022-12-07T11:08:39;100635.25;;;5.77;81.58
29505;BME280;16452;54.174;12.092;2022-12-07T11:11:45;100630.41;;;5.68;81.76
29505;BME280;16452;54.174;12.092;2022-12-07T11:14:40;100635.25;;;5.77;82.13
29505;BME280;16452;54.174;12.092;2022-12-07T11:17:31;100633.63;;;5.50;80.58
29505;BME280;16452;54.174;12.092;2022-12-07T11:23:46;100631.50;;;5.61;78.97
29505;BME280;16452;54.174;12.092;2022-12-07T11:26:32;100624.84;;;5.54;81.39
29505;BME280;16452;54.174;12.092;2022-12-07T11:29:55;100624.19;;;5.73;80.83
29505;BME280;16452;54.174;12.092;2022-12-07T11:37:42;100619.16;;;5.70;83.90
29505;BME280;16452;54.174;12.092;2022-12-07T11:40:20;100619.88;;;5.74;82.04
29505;BME280;16452;54.174;12.092;2022-12-07T11:43:14;100606.28;;;5.94;83.47
29505;BME280;16452;54.174;12.092;2022-12-07T11:45:46;100589.44;;;5.82;83.62
29505;BME280;16452;54.174;12.092;2022-12-07T11:48:28;100596.50;;;5.77;81.66
29505;BME280;16452;54.174;12.092;2022-12-07T11:51:00;100580.75;;;5.83;79.93
29505;BME280;16452;54.174;12.092;2022-12-07T11:53:57;100591.91;;;5.85;79.85
29505;BME280;16452;54.174;12.092;2022-12-07T11:56:27;100585.75;;;5.89;83.25
29505;BME280;16452;54.174;12.092;2022-12-07T12:02:19;100582.00;;;5.73;82.13
29505;BME280;16452;54.174;12.092;2022-12-07T12:05:16;100573.09;;;5.82;84.00
29505;BME280;16452;54.174;12.092;2022-12-07T12:07:45;100573.81;;;5.85;83.83
29505;BME280;16452;54.174;12.092;2022-12-07T12:10:38;100586.16;;;6.02;83.17
29505;BME280;16452;54.174;12.092;2022-12-07T12:19:41;100583.97;;;5.91;84.20
29505;BME280;16452;54.174;12.092;2022-12-07T12:22:16;100586.84;;;5.82;84.88
29505;BME280;16452;54.174;12.092;2022-12-07T12:24:46;100593.97;;;6.00;85.75
29505;BME280;16452;54.174;12.092;2022-12-07T12:27:36;100576.84;;;6.43;83.38
29505;BME280;16452;54.174;12.092;2022-12-07T12:30:07;100584.00;;;6.36;80.96
29505;BME280;16452;54.174;12.092;2022-12-07T12:32:48;100577.63;;;6.00;79.72
29505;BME280;16452;54.174;12.092;2022-12-07T12:35:36;100569.34;;;6.13;81.32
29505;BME280;16452;54.174;12.092;2022-12-07T12:38:32;100576.22;;;6.14;79.69
29505;BME280;16452;54.174;12.092;2022-12-07T12:41:01;100571.50;;;5.77;79.80
29505;BME280;16452;54.174;12.092;2022-12-07T12:43:50;100563.69;;;5.79;81.31
29505;BME280;16452;54.174;12.092;2022-12-07T12:51:51;100562.16;;;5.73;88.45
29505;BME280;16452;54.174;12.092;2022-12-07T12:54:31;100551.03;;;5.71;85.71
29505;BME280;16452;54.174;12.092;2022-12-07T13:02:33;100558.88;;;5.70;94.71
29505;BME280;16452;54.174;12.092;2022-12-07T13:05:20;100569.56;;;5.34;92.28
29505;BME280;16452;54.174;12.092;2022-12-07T13:18:39;100560.91;;;5.60;87.24
29505;BME280;16452;54.174;12.092;2022-12-07T13:26:24;100567.47;;;5.46;88.45
29505;BME280;16452;54.174;12.092;2022-12-07T13:29:16;100571.19;;;5.37;84.99
29505;BME280;16452;54.174;12.092;2022-12-07T13:31:44;100562.13;;;5.25;83.42
29505;BME280;16452;54.174;12.092;2022-12-07T13:34:46;100571.34;;;5.32;84.74
29505;BME280;16452;54.174;12.092;2022-12-07T13:37:28;100567.00;;;5.34;84.60
29505;BME280;16452;54.174;12.092;2022-12-07T13:40:17;100566.44;;;5.25;85.87
29505;BME280;16452;54.174;12.092;2022-12-07T13:42:44;100570.34;;;5.12;86.52
29505;BME280;16452;54.174;12.092;2022-12-07T13:45:30;100569.94;;;5.24;89.60
29505;BME280;16452;54.174;12.092;2022-12-07T13:48:43;100585.06;;;5.08;89.20
29505;BME280;16452;54.174;12.092;2022-12-07T13:51:23;100579.50;;;5.20;89.61
29505;BME280;16452;54.174;12.092;2022-12-07T13:53:53;100575.53;;;5.10;90.12
29505;BME280;16452;54.174;12.092;2022-12-07T13:56:24;100591.91;;;5.09;94.70
29505;BME280;16452;54.174;12.092;2022-12-07T13:58:51;100583.22;;;4.59;100.00
29505;BME280;16452;54.174;12.092;2022-12-07T14:01:17;100577.75;;;4.68;100.00
29505;BME280;16452;54.174;12.092;2022-12-07T14:03:44;100579.44;;;4.95;100.00
29505;BME280;16452;54.174;12.092;2022-12-07T14:06:25;100588.00;;;4.97;95.37
29505;BME280;16452;54.174;12.092;2022-12-07T14:09:23;100584.22;;;5.08;94.18
29505;BME280;16452;54.174;12.092;2022-12-07T14:11:52;100582.78;;;4.99;94.18
29505;BME280;16452;54.174;12.092;2022-12-07T14:14:27;100594.53;;;5.08;93.25
29505;BME280;16452;54.174;12.092;2022-12-07T14:16:58;100588.47;;;5.10;94.85
29505;BME280;16452;54.174;12.092;2022-12-07T14:19:52;100588.00;;;5.24;95.18
29505;BME280;16452;54.174;12.092;2022-12-07T14:22:32;100589.63;;;5.26;100.00
29505;BME280;16452;54.174;12.092;2022-12-07T14:27:47;100597.47;;;4.97;100.00
29505;BME280;16452;54.174;12.092;2022-12-07T14:30:18;100590.22;;;4.82;99.64
29505;BME280;16452;54.174;12.092;2022-12-07T14:32:44;100579.47;;;4.68;100.00
29505;BME280;16452;54.174;12.092;2022-12-07T14:35:16;100589.16;;;4.89;100.00
29505;BME280;16452;54.174;12.092;2022-12-07T14:37:45;100587.34;;;4.91;100.00